sensor_id;sensor_type;location;lat;lon;timestamp;P1;durP1;ratioP1;P2;durP2;ratioP2
38785;SDS011;24535;45.508;12.252;2022-09-06T00:01:44;5.85;;;5.22;;
38785;SDS011;24535;45.508;12.252;2022-09-06T00:04:13;5.85;;;4.35;;
38785;SDS011;24535;45.508;12.252;2022-09-06T00:06:41;5.05;;;4.50;;
38785;SDS011;24535;45.508;12.252;2022-09-06T00:09:06;4.22;;;3.85;;
38785;SDS011;24535;45.508;12.252;2022-09-06T00:11:32;5.80;;;4.80;;
38785;SDS011;24535;45.508;12.252;2022-09-06T00:13:57;6.90;;;4.75;;
38785;SDS011;24535;45.508;12.252;2022-09-06T00:23:01;6.88;;;4.40;;
38785;SDS011;24535;45.508;12.252;2022-09-06T00:25:29;3.35;;;3.05;;
38785;SDS011;24535;45.508;12.252;2022-09-06T00:27:56;6.55;;;4.07;;
38785;SDS011;24535;45.508;12.252;2022-09-06T00:30:23;3.95;;;3.47;;
38785;SDS011;24535;45.508;12.252;2022-09-06T00:32:49;5.75;;;4.32;;
38785;SDS011;24535;45.508;12.252;2022-09-06T00:35:16;5.57;;;4.43;;
38785;SDS011;24535;45.508;12.252;2022-09-06T00:37:44;5.20;;;4.07;;
38785;SDS011;24535;45.508;12.252;2022-09-06T00:40:10;8.35;;;5.97;;
38785;SDS011;24535;45.508;12.252;2022-09-06T00:42:37;6.63;;;4.07;;
38785;SDS011;24535;45.508;12.252;2022-09-06T00:45:03;6.35;;;5.00;;
38785;SDS011;24535;45.508;12.252;2022-09-06T00:47:31;4.77;;;4.37;;
38785;SDS011;24535;45.508;12.252;2022-09-06T00:49:59;6.18;;;4.80;;
38785;SDS011;24535;45.508;12.252;2022-09-06T00:52:26;9.85;;;5.13;;
38785;SDS011;24535;45.508;12.252;2022-09-06T00:54:53;6.90;;;5.75;;
38785;SDS011;24535;45.508;12.252;2022-09-06T00:57:19;8.15;;;6.47;;
38785;SDS011;24535;45.508;12.252;2022-09-06T00:59:45;7.75;;;6.95;;
38785;SDS011;24535;45.508;12.252;2022-09-06T01:02:12;6.25;;;5.65;;
38785;SDS011;24535;45.508;12.252;2022-09-06T01:04:38;7.38;;;6.20;;
38785;SDS011;24535;45.508;12.252;2022-09-06T01:24:00;8.43;;;6.15;;
38785;SDS011;24535;45.508;12.252;2022-09-06T01:35:29;5.60;;;4.82;;
38785;SDS011;24535;45.508;12.252;2022-09-06T01:38:18;9.93;;;8.37;;
38785;SDS011;24535;45.508;12.252;2022-09-06T01:40:44;9.43;;;8.23;;
38785;SDS011;24535;45.508;12.252;2022-09-06T01:59:37;10.88;;;9.02;;
38785;SDS011;24535;45.508;12.252;2022-09-06T02:05:06;13.70;;;9.70;;
38785;SDS011;24535;45.508;12.252;2022-09-06T02:07:36;6.15;;;5.55;;
38785;SDS011;24535;45.508;12.252;2022-09-06T02:16:34;11.63;;;10.27;;
38785;SDS011;24535;45.508;12.252;2022-09-06T02:21:41;12.77;;;11.40;;
38785;SDS011;24535;45.508;12.252;2022-09-06T02:24:17;13.20;;;11.18;;
38785;SDS011;24535;45.508;12.252;2022-09-06T02:26:46;12.77;;;11.50;;
38785;SDS011;24535;45.508;12.252;2022-09-06T02:29:19;12.00;;;10.27;;
38785;SDS011;24535;45.508;12.252;2022-09-06T02:34:13;12.20;;;10.80;;
38785;SDS011;24535;45.508;12.252;2022-09-06T02:36:41;11.67;;;10.40;;
38785;SDS011;24535;45.508;12.252;2022-09-06T02:39:07;13.38;;;10.48;;
38785;SDS011;24535;45.508;12.252;2022-09-06T02:41:32;8.70;;;7.78;;
38785;SDS011;24535;45.508;12.252;2022-09-06T02:43:59;12.90;;;10.52;;
38785;SDS011;24535;45.508;12.252;2022-09-06T02:46:24;11.52;;;10.32;;
38785;SDS011;24535;45.508;12.252;2022-09-06T02:48:50;13.68;;;9.93;;
38785;SDS011;24535;45.508;12.252;2022-09-06T02:51:18;12.05;;;10.80;;
38785;SDS011;24535;45.508;12.252;2022-09-06T02:53:44;11.55;;;10.40;;
38785;SDS011;24535;45.508;12.252;2022-09-06T02:56:16;12.93;;;10.02;;
38785;SDS011;24535;45.508;12.252;2022-09-06T02:58:42;11.15;;;10.02;;
38785;SDS011;24535;45.508;12.252;2022-09-06T03:01:07;12.95;;;11.65;;
38785;SDS011;24535;45.508;12.252;2022-09-06T03:03:33;11.32;;;9.60;;
38785;SDS011;24535;45.508;12.252;2022-09-06T03:06:19;11.27;;;10.27;;
38785;SDS011;24535;45.508;12.252;2022-09-06T03:08:44;11.57;;;10.07;;
38785;SDS011;24535;45.508;12.252;2022-09-06T03:11:10;11.52;;;10.20;;
38785;SDS011;24535;45.508;12.252;2022-09-06T03:13:36;12.95;;;10.30;;
38785;SDS011;24535;45.508;12.252;2022-09-06T03:16:01;13.10;;;11.00;;
38785;SDS011;24535;45.508;12.252;2022-09-06T03:18:27;13.27;;;11.77;;
38785;SDS011;24535;45.508;12.252;2022-09-06T03:20:54;12.88;;;11.63;;
38785;SDS011;24535;45.508;12.252;2022-09-06T03:23:21;11.65;;;10.40;;
38785;SDS011;24535;45.508;12.252;2022-09-06T03:25:48;13.20;;;11.85;;
38785;SDS011;24535;45.508;12.252;2022-09-06T03:28:14;13.27;;;11.73;;
38785;SDS011;24535;45.508;12.252;2022-09-06T03:30:43;14.20;;;12.85;;
38785;SDS011;24535;45.508;12.252;2022-09-06T03:33:09;15.77;;;11.77;;
38785;SDS011;24535;45.508;12.252;2022-09-06T03:35:35;13.60;;;12.27;;
38785;SDS011;24535;45.508;12.252;2022-09-06T03:38:00;13.43;;;12.00;;
38785;SDS011;24535;45.508;12.252;2022-09-06T03:40:26;14.00;;;12.52;;
38785;SDS011;24535;45.508;12.252;2022-09-06T03:42:52;13.25;;;11.18;;
38785;SDS011;24535;45.508;12.252;2022-09-06T03:45:17;13.02;;;11.55;;
38785;SDS011;24535;45.508;12.252;2022-09-06T03:47:43;13.93;;;12.25;;
38785;SDS011;24535;45.508;12.252;2022-09-06T03:50:11;14.07;;;12.57;;
38785;SDS011;24535;45.508;12.252;2022-09-06T03:52:36;18.17;;;12.38;;
38785;SDS011;24535;45.508;12.252;2022-09-06T03:55:02;13.40;;;11.38;;
38785;SDS011;24535;45.508;12.252;2022-09-06T03:57:29;14.85;;;13.10;;
38785;SDS011;24535;45.508;12.252;2022-09-06T03:59:54;12.10;;;10.30;;
38785;SDS011;24535;45.508;12.252;2022-09-06T04:02:19;13.05;;;11.75;;
38785;SDS011;24535;45.508;12.252;2022-09-06T04:04:45;19.52;;;11.55;;
38785;SDS011;24535;45.508;12.252;2022-09-06T04:07:10;15.35;;;10.68;;
38785;SDS011;24535;45.508;12.252;2022-09-06T04:09:36;14.43;;;10.68;;
38785;SDS011;24535;45.508;12.252;2022-09-06T04:12:02;13.05;;;11.05;;
38785;SDS011;24535;45.508;12.252;2022-09-06T04:14:28;13.88;;;11.45;;
38785;SDS011;24535;45.508;12.252;2022-09-06T04:16:54;13.85;;;10.45;;
38785;SDS011;24535;45.508;12.252;2022-09-06T04:19:19;13.07;;;10.80;;
38785;SDS011;24535;45.508;12.252;2022-09-06T04:21:44;14.48;;;11.80;;
38785;SDS011;24535;45.508;12.252;2022-09-06T04:24:10;14.57;;;11.88;;
38785;SDS011;24535;45.508;12.252;2022-09-06T04:26:35;16.10;;;12.32;;
38785;SDS011;24535;45.508;12.252;2022-09-06T04:29:01;14.07;;;12.63;;
38785;SDS011;24535;45.508;12.252;2022-09-06T04:31:26;12.07;;;10.85;;
38785;SDS011;24535;45.508;12.252;2022-09-06T04:33:52;10.45;;;9.30;;
38785;SDS011;24535;45.508;12.252;2022-09-06T04:36:17;14.77;;;8.55;;
38785;SDS011;24535;45.508;12.252;2022-09-06T04:38:43;12.23;;;9.73;;
38785;SDS011;24535;45.508;12.252;2022-09-06T04:41:10;11.23;;;10.13;;
38785;SDS011;24535;45.508;12.252;2022-09-06T04:43:36;8.23;;;7.32;;
38785;SDS011;24535;45.508;12.252;2022-09-06T04:46:03;15.30;;;11.15;;
38785;SDS011;24535;45.508;12.252;2022-09-06T04:48:30;14.02;;;11.02;;
38785;SDS011;24535;45.508;12.252;2022-09-06T04:50:55;14.93;;;12.65;;
38785;SDS011;24535;45.508;12.252;2022-09-06T04:53:21;14.55;;;12.82;;
38785;SDS011;24535;45.508;12.252;2022-09-06T04:55:46;17.85;;;13.00;;
38785;SDS011;24535;45.508;12.252;2022-09-06T04:58:12;14.32;;;12.85;;
38785;SDS011;24535;45.508;12.252;2022-09-06T05:00:37;15.18;;;13.32;;
38785;SDS011;24535;45.508;12.252;2022-09-06T05:03:03;14.45;;;12.20;;
38785;SDS011;24535;45.508;12.252;2022-09-06T05:05:29;12.75;;;11.45;;
38785;SDS011;24535;45.508;12.252;2022-09-06T05:07:54;15.30;;;12.93;;
38785;SDS011;24535;45.508;12.252;2022-09-06T05:10:21;15.50;;;13.32;;
38785;SDS011;24535;45.508;12.252;2022-09-06T05:12:48;17.05;;;11.93;;
38785;SDS011;24535;45.508;12.252;2022-09-06T05:15:16;11.85;;;10.65;;
38785;SDS011;24535;45.508;12.252;2022-09-06T05:17:42;18.85;;;11.40;;
38785;SDS011;24535;45.508;12.252;2022-09-06T05:20:07;15.63;;;12.95;;
38785;SDS011;24535;45.508;12.252;2022-09-06T05:22:34;17.02;;;13.65;;
38785;SDS011;24535;45.508;12.252;2022-09-06T05:24:59;15.82;;;13.45;;
38785;SDS011;24535;45.508;12.252;2022-09-06T05:27:25;18.05;;;13.45;;
38785;SDS011;24535;45.508;12.252;2022-09-06T05:29:50;14.15;;;12.30;;
38785;SDS011;24535;45.508;12.252;2022-09-06T05:32:16;12.57;;;11.25;;
38785;SDS011;24535;45.508;12.252;2022-09-06T05:34:41;15.63;;;11.90;;
38785;SDS011;24535;45.508;12.252;2022-09-06T05:37:07;10.38;;;9.25;;
38785;SDS011;24535;45.508;12.252;2022-09-06T05:39:32;11.45;;;10.38;;
38785;SDS011;24535;45.508;12.252;2022-09-06T05:41:58;17.10;;;13.02;;
38785;SDS011;24535;45.508;12.252;2022-09-06T05:44:24;16.23;;;14.07;;
38785;SDS011;24535;45.508;12.252;2022-09-06T05:46:50;13.57;;;12.10;;
38785;SDS011;24535;45.508;12.252;2022-09-06T05:49:15;19.27;;;13.70;;
38785;SDS011;24535;45.508;12.252;2022-09-06T05:51:41;15.40;;;13.45;;
38785;SDS011;24535;45.508;12.252;2022-09-06T05:54:06;15.40;;;13.38;;
38785;SDS011;24535;45.508;12.252;2022-09-06T05:56:35;17.55;;;14.05;;
38785;SDS011;24535;45.508;12.252;2022-09-06T05:59:00;18.35;;;14.10;;
38785;SDS011;24535;45.508;12.252;2022-09-06T06:01:28;15.75;;;14.10;;
38785;SDS011;24535;45.508;12.252;2022-09-06T06:03:55;16.83;;;13.90;;
38785;SDS011;24535;45.508;12.252;2022-09-06T06:06:26;15.70;;;14.00;;
38785;SDS011;24535;45.508;12.252;2022-09-06T06:08:53;16.15;;;14.25;;
38785;SDS011;24535;45.508;12.252;2022-09-06T06:11:19;14.50;;;10.57;;
38785;SDS011;24535;45.508;12.252;2022-09-06T06:13:44;17.73;;;15.80;;
38785;SDS011;24535;45.508;12.252;2022-09-06T06:16:11;16.67;;;14.38;;
38785;SDS011;24535;45.508;12.252;2022-09-06T06:18:38;16.05;;;14.43;;
38785;SDS011;24535;45.508;12.252;2022-09-06T06:23:35;21.77;;;16.33;;
38785;SDS011;24535;45.508;12.252;2022-09-06T06:26:01;17.48;;;15.60;;
38785;SDS011;24535;45.508;12.252;2022-09-06T06:28:26;22.63;;;15.15;;
38785;SDS011;24535;45.508;12.252;2022-09-06T06:30:52;17.73;;;15.60;;
38785;SDS011;24535;45.508;12.252;2022-09-06T06:33:18;19.45;;;15.65;;
38785;SDS011;24535;45.508;12.252;2022-09-06T06:38:32;11.95;;;9.05;;
38785;SDS011;24535;45.508;12.252;2022-09-06T06:40:58;17.67;;;15.40;;
38785;SDS011;24535;45.508;12.252;2022-09-06T06:43:25;18.38;;;13.50;;
38785;SDS011;24535;45.508;12.252;2022-09-06T06:45:51;20.30;;;15.55;;
38785;SDS011;24535;45.508;12.252;2022-09-06T06:48:17;20.45;;;16.13;;
38785;SDS011;24535;45.508;12.252;2022-09-06T06:50:42;20.15;;;14.35;;
38785;SDS011;24535;45.508;12.252;2022-09-06T06:53:14;5.85;;;4.82;;
38785;SDS011;24535;45.508;12.252;2022-09-06T06:55:43;13.63;;;12.23;;
38785;SDS011;24535;45.508;12.252;2022-09-06T06:58:10;13.27;;;11.93;;
38785;SDS011;24535;45.508;12.252;2022-09-06T07:00:39;16.60;;;14.77;;
38785;SDS011;24535;45.508;12.252;2022-09-06T07:05:32;13.48;;;10.80;;
38785;SDS011;24535;45.508;12.252;2022-09-06T07:07:57;16.23;;;10.18;;
38785;SDS011;24535;45.508;12.252;2022-09-06T07:10:23;6.85;;;5.00;;
38785;SDS011;24535;45.508;12.252;2022-09-06T07:12:49;10.82;;;7.43;;
38785;SDS011;24535;45.508;12.252;2022-09-06T07:15:14;14.82;;;10.73;;
38785;SDS011;24535;45.508;12.252;2022-09-06T07:17:40;11.25;;;8.70;;
38785;SDS011;24535;45.508;12.252;2022-09-06T07:20:06;5.18;;;4.18;;
38785;SDS011;24535;45.508;12.252;2022-09-06T07:22:31;4.95;;;4.40;;
38785;SDS011;24535;45.508;12.252;2022-09-06T07:24:57;6.15;;;4.80;;
38785;SDS011;24535;45.508;12.252;2022-09-06T07:27:22;11.48;;;8.50;;
38785;SDS011;24535;45.508;12.252;2022-09-06T07:29:48;11.15;;;10.00;;
38785;SDS011;24535;45.508;12.252;2022-09-06T07:32:13;13.75;;;10.32;;
38785;SDS011;24535;45.508;12.252;2022-09-06T07:34:39;12.13;;;8.45;;
38785;SDS011;24535;45.508;12.252;2022-09-06T07:37:05;10.63;;;9.50;;
38785;SDS011;24535;45.508;12.252;2022-09-06T07:39:30;12.52;;;9.90;;
38785;SDS011;24535;45.508;12.252;2022-09-06T07:42:01;9.38;;;7.28;;
38785;SDS011;24535;45.508;12.252;2022-09-06T07:44:26;11.07;;;8.00;;
38785;SDS011;24535;45.508;12.252;2022-09-06T07:46:53;10.70;;;8.00;;
38785;SDS011;24535;45.508;12.252;2022-09-06T07:49:19;10.73;;;8.55;;
38785;SDS011;24535;45.508;12.252;2022-09-06T07:51:48;7.63;;;6.55;;
38785;SDS011;24535;45.508;12.252;2022-09-06T07:54:13;6.43;;;4.70;;
38785;SDS011;24535;45.508;12.252;2022-09-06T07:56:39;7.43;;;5.57;;
38785;SDS011;24535;45.508;12.252;2022-09-06T07:59:04;4.22;;;3.83;;
38785;SDS011;24535;45.508;12.252;2022-09-06T08:01:33;6.43;;;5.78;;
38785;SDS011;24535;45.508;12.252;2022-09-06T08:04:01;8.73;;;6.22;;
38785;SDS011;24535;45.508;12.252;2022-09-06T08:06:32;7.05;;;4.82;;
38785;SDS011;24535;45.508;12.252;2022-09-06T08:08:58;3.30;;;2.97;;
38785;SDS011;24535;45.508;12.252;2022-09-06T08:11:26;4.68;;;2.88;;
38785;SDS011;24535;45.508;12.252;2022-09-06T08:13:56;2.97;;;2.28;;
38785;SDS011;24535;45.508;12.252;2022-09-06T08:16:25;2.63;;;2.25;;
38785;SDS011;24535;45.508;12.252;2022-09-06T08:18:52;4.65;;;2.85;;
38785;SDS011;24535;45.508;12.252;2022-09-06T08:21:23;7.32;;;4.85;;
38785;SDS011;24535;45.508;12.252;2022-09-06T08:23:56;5.22;;;3.72;;
38785;SDS011;24535;45.508;12.252;2022-09-06T08:26:26;4.13;;;2.85;;
38785;SDS011;24535;45.508;12.252;2022-09-06T08:28:53;6.05;;;2.42;;
38785;SDS011;24535;45.508;12.252;2022-09-06T08:31:20;2.80;;;2.00;;
38785;SDS011;24535;45.508;12.252;2022-09-06T08:33:46;3.83;;;1.55;;
38785;SDS011;24535;45.508;12.252;2022-09-06T08:36:11;2.58;;;2.10;;
38785;SDS011;24535;45.508;12.252;2022-09-06T08:38:38;2.85;;;1.98;;
38785;SDS011;24535;45.508;12.252;2022-09-06T08:41:05;3.55;;;1.80;;
38785;SDS011;24535;45.508;12.252;2022-09-06T08:43:33;1.58;;;1.27;;
38785;SDS011;24535;45.508;12.252;2022-09-06T08:46:00;3.58;;;1.63;;
38785;SDS011;24535;45.508;12.252;2022-09-06T08:48:27;3.17;;;1.75;;
38785;SDS011;24535;45.508;12.252;2022-09-06T08:51:42;3.45;;;1.75;;
38785;SDS011;24535;45.508;12.252;2022-09-06T08:54:05;5.38;;;2.03;;
38785;SDS011;24535;45.508;12.252;2022-09-06T08:59:21;2.63;;;1.52;;
38785;SDS011;24535;45.508;12.252;2022-09-06T09:01:52;2.97;;;1.67;;
38785;SDS011;24535;45.508;12.252;2022-09-06T09:04:22;1.73;;;1.40;;
38785;SDS011;24535;45.508;12.252;2022-09-06T09:06:52;5.47;;;1.98;;
38785;SDS011;24535;45.508;12.252;2022-09-06T09:09:23;2.22;;;1.63;;
38785;SDS011;24535;45.508;12.252;2022-09-06T09:11:54;2.08;;;1.70;;
38785;SDS011;24535;45.508;12.252;2022-09-06T09:14:27;2.35;;;1.55;;
38785;SDS011;24535;45.508;12.252;2022-09-06T09:17:02;6.38;;;1.85;;
38785;SDS011;24535;45.508;12.252;2022-09-06T09:19:36;2.67;;;1.45;;
38785;SDS011;24535;45.508;12.252;2022-09-06T09:22:04;4.28;;;1.60;;
38785;SDS011;24535;45.508;12.252;2022-09-06T09:24:30;1.67;;;1.25;;
38785;SDS011;24535;45.508;12.252;2022-09-06T09:27:09;8.85;;;3.08;;
38785;SDS011;24535;45.508;12.252;2022-09-06T09:29:55;6.43;;;2.25;;
38785;SDS011;24535;45.508;12.252;2022-09-06T09:37:35;4.53;;;2.85;;
38785;SDS011;24535;45.508;12.252;2022-09-06T09:40:01;6.45;;;3.40;;
38785;SDS011;24535;45.508;12.252;2022-09-06T09:42:28;8.75;;;4.70;;
38785;SDS011;24535;45.508;12.252;2022-09-06T09:44:59;5.55;;;4.07;;
38785;SDS011;24535;45.508;12.252;2022-09-06T09:47:30;10.32;;;5.70;;
38785;SDS011;24535;45.508;12.252;2022-09-06T09:49:57;5.65;;;4.38;;
38785;SDS011;24535;45.508;12.252;2022-09-06T09:52:26;6.93;;;3.67;;
38785;SDS011;24535;45.508;12.252;2022-09-06T09:54:59;6.45;;;3.63;;
38785;SDS011;24535;45.508;12.252;2022-09-06T09:57:26;5.07;;;4.00;;
38785;SDS011;24535;45.508;12.252;2022-09-06T09:59:55;5.70;;;4.13;;
38785;SDS011;24535;45.508;12.252;2022-09-06T10:07:44;7.78;;;3.45;;
38785;SDS011;24535;45.508;12.252;2022-09-06T10:10:14;12.20;;;5.97;;
38785;SDS011;24535;45.508;12.252;2022-09-06T10:12:46;9.02;;;5.85;;
38785;SDS011;24535;45.508;12.252;2022-09-06T10:15:30;12.70;;;6.50;;
38785;SDS011;24535;45.508;12.252;2022-09-06T10:18:05;7.50;;;4.50;;
38785;SDS011;24535;45.508;12.252;2022-09-06T10:20:53;10.40;;;3.67;;
38785;SDS011;24535;45.508;12.252;2022-09-06T10:42:19;9.55;;;7.28;;
38785;SDS011;24535;45.508;12.252;2022-09-06T10:47:55;10.18;;;5.85;;
38785;SDS011;24535;45.508;12.252;2022-09-06T10:53:08;7.23;;;4.17;;
38785;SDS011;24535;45.508;12.252;2022-09-06T10:55:38;8.63;;;5.90;;
38785;SDS011;24535;45.508;12.252;2022-09-06T10:58:06;6.78;;;5.22;;
38785;SDS011;24535;45.508;12.252;2022-09-06T11:00:36;7.85;;;4.43;;
38785;SDS011;24535;45.508;12.252;2022-09-06T11:03:14;5.28;;;3.70;;
38785;SDS011;24535;45.508;12.252;2022-09-06T11:05:51;6.13;;;4.88;;
38785;SDS011;24535;45.508;12.252;2022-09-06T11:08:22;8.45;;;4.15;;
38785;SDS011;24535;45.508;12.252;2022-09-06T11:10:53;8.57;;;3.60;;
38785;SDS011;24535;45.508;12.252;2022-09-06T11:13:21;3.92;;;3.53;;
38785;SDS011;24535;45.508;12.252;2022-09-06T11:18:41;5.00;;;2.45;;
38785;SDS011;24535;45.508;12.252;2022-09-06T11:24:12;5.80;;;3.30;;
38785;SDS011;24535;45.508;12.252;2022-09-06T11:29:26;2.47;;;1.70;;
38785;SDS011;24535;45.508;12.252;2022-09-06T11:31:57;2.30;;;1.60;;
38785;SDS011;24535;45.508;12.252;2022-09-06T11:37:05;3.80;;;2.00;;
38785;SDS011;24535;45.508;12.252;2022-09-06T11:39:39;4.10;;;1.90;;
38785;SDS011;24535;45.508;12.252;2022-09-06T11:42:12;5.10;;;1.63;;
38785;SDS011;24535;45.508;12.252;2022-09-06T11:45:41;4.55;;;1.90;;
38785;SDS011;24535;45.508;12.252;2022-09-06T11:53:28;2.45;;;1.88;;
38785;SDS011;24535;45.508;12.252;2022-09-06T12:08:57;5.85;;;2.08;;
38785;SDS011;24535;45.508;12.252;2022-09-06T12:11:33;2.33;;;1.70;;
38785;SDS011;24535;45.508;12.252;2022-09-06T12:24:52;3.00;;;2.00;;
38785;SDS011;24535;45.508;12.252;2022-09-06T12:27:21;3.53;;;1.75;;
38785;SDS011;24535;45.508;12.252;2022-09-06T12:29:49;3.35;;;2.10;;
38785;SDS011;24535;45.508;12.252;2022-09-06T12:32:33;4.00;;;2.40;;
38785;SDS011;24535;45.508;12.252;2022-09-06T12:35:06;4.03;;;2.08;;
38785;SDS011;24535;45.508;12.252;2022-09-06T12:37:54;5.43;;;2.88;;
38785;SDS011;24535;45.508;12.252;2022-09-06T12:40:25;3.00;;;2.17;;
38785;SDS011;24535;45.508;12.252;2022-09-06T12:42:53;6.10;;;2.47;;
38785;SDS011;24535;45.508;12.252;2022-09-06T12:45:20;5.18;;;2.40;;
38785;SDS011;24535;45.508;12.252;2022-09-06T12:47:47;6.00;;;2.90;;
38785;SDS011;24535;45.508;12.252;2022-09-06T12:52:44;3.15;;;2.67;;
38785;SDS011;24535;45.508;12.252;2022-09-06T12:55:28;4.45;;;2.40;;
38785;SDS011;24535;45.508;12.252;2022-09-06T12:57:57;5.95;;;3.30;;
38785;SDS011;24535;45.508;12.252;2022-09-06T13:00:25;6.65;;;3.60;;
38785;SDS011;24535;45.508;12.252;2022-09-06T13:03:04;5.53;;;3.25;;
38785;SDS011;24535;45.508;12.252;2022-09-06T13:05:43;3.47;;;2.75;;
38785;SDS011;24535;45.508;12.252;2022-09-06T13:08:14;3.33;;;2.78;;
38785;SDS011;24535;45.508;12.252;2022-09-06T13:10:47;3.83;;;2.58;;
38785;SDS011;24535;45.508;12.252;2022-09-06T13:13:21;4.05;;;2.30;;
38785;SDS011;24535;45.508;12.252;2022-09-06T13:15:48;3.45;;;2.10;;
38785;SDS011;24535;45.508;12.252;2022-09-06T13:18:19;3.90;;;2.78;;
38785;SDS011;24535;45.508;12.252;2022-09-06T13:20:55;6.82;;;2.60;;
38785;SDS011;24535;45.508;12.252;2022-09-06T13:23:22;5.90;;;2.42;;
38785;SDS011;24535;45.508;12.252;2022-09-06T13:25:48;2.67;;;2.47;;
38785;SDS011;24535;45.508;12.252;2022-09-06T13:28:22;5.45;;;2.88;;
38785;SDS011;24535;45.508;12.252;2022-09-06T13:31:02;6.05;;;2.67;;
38785;SDS011;24535;45.508;12.252;2022-09-06T13:33:30;4.95;;;1.90;;
38785;SDS011;24535;45.508;12.252;2022-09-06T13:36:07;9.50;;;2.03;;
38785;SDS011;24535;45.508;12.252;2022-09-06T13:38:44;4.40;;;2.28;;
38785;SDS011;24535;45.508;12.252;2022-09-06T13:43:58;4.18;;;2.15;;
38785;SDS011;24535;45.508;12.252;2022-09-06T13:46:32;3.10;;;2.22;;
38785;SDS011;24535;45.508;12.252;2022-09-06T13:48:59;3.55;;;1.92;;
38785;SDS011;24535;45.508;12.252;2022-09-06T13:51:24;5.75;;;2.08;;
38785;SDS011;24535;45.508;12.252;2022-09-06T13:54:08;6.05;;;2.53;;
38785;SDS011;24535;45.508;12.252;2022-09-06T13:56:36;2.65;;;1.90;;
38785;SDS011;24535;45.508;12.252;2022-09-06T13:59:03;4.20;;;2.03;;
38785;SDS011;24535;45.508;12.252;2022-09-06T14:01:30;3.75;;;1.80;;
38785;SDS011;24535;45.508;12.252;2022-09-06T14:03:59;3.38;;;2.17;;
38785;SDS011;24535;45.508;12.252;2022-09-06T14:06:25;3.08;;;2.05;;
38785;SDS011;24535;45.508;12.252;2022-09-06T14:08:50;3.20;;;2.40;;
38785;SDS011;24535;45.508;12.252;2022-09-06T14:11:16;3.60;;;2.33;;
38785;SDS011;24535;45.508;12.252;2022-09-06T14:13:42;4.57;;;2.00;;
38785;SDS011;24535;45.508;12.252;2022-09-06T14:16:08;3.92;;;1.55;;
38785;SDS011;24535;45.508;12.252;2022-09-06T14:18:34;2.40;;;2.08;;
38785;SDS011;24535;45.508;12.252;2022-09-06T14:21:00;2.83;;;1.73;;
38785;SDS011;24535;45.508;12.252;2022-09-06T14:23:26;5.72;;;1.92;;
38785;SDS011;24535;45.508;12.252;2022-09-06T14:25:55;2.90;;;2.10;;
38785;SDS011;24535;45.508;12.252;2022-09-06T14:30:47;4.18;;;2.17;;
38785;SDS011;24535;45.508;12.252;2022-09-06T14:33:12;2.97;;;1.88;;
38785;SDS011;24535;45.508;12.252;2022-09-06T14:35:38;2.13;;;1.50;;
38785;SDS011;24535;45.508;12.252;2022-09-06T14:38:04;3.30;;;1.75;;
38785;SDS011;24535;45.508;12.252;2022-09-06T14:40:32;3.95;;;1.70;;
38785;SDS011;24535;45.508;12.252;2022-09-06T14:43:02;2.13;;;1.75;;
38785;SDS011;24535;45.508;12.252;2022-09-06T14:45:28;2.83;;;1.90;;
38785;SDS011;24535;45.508;12.252;2022-09-06T14:47:54;3.03;;;1.67;;
38785;SDS011;24535;45.508;12.252;2022-09-06T14:50:20;1.83;;;1.73;;
38785;SDS011;24535;45.508;12.252;2022-09-06T14:52:46;2.38;;;1.60;;
38785;SDS011;24535;45.508;12.252;2022-09-06T14:55:11;2.03;;;1.55;;
38785;SDS011;24535;45.508;12.252;2022-09-06T14:57:37;5.15;;;1.63;;
38785;SDS011;24535;45.508;12.252;2022-09-06T15:00:03;4.20;;;1.80;;
38785;SDS011;24535;45.508;12.252;2022-09-06T15:05:04;2.05;;;1.52;;
38785;SDS011;24535;45.508;12.252;2022-09-06T15:07:30;3.80;;;1.67;;
38785;SDS011;24535;45.508;12.252;2022-09-06T15:09:56;4.53;;;1.73;;
38785;SDS011;24535;45.508;12.252;2022-09-06T15:12:21;2.53;;;1.52;;
38785;SDS011;24535;45.508;12.252;2022-09-06T15:14:47;4.40;;;1.60;;
38785;SDS011;24535;45.508;12.252;2022-09-06T15:17:12;5.68;;;1.98;;
38785;SDS011;24535;45.508;12.252;2022-09-06T15:19:38;1.70;;;1.58;;
38785;SDS011;24535;45.508;12.252;2022-09-06T15:22:04;4.10;;;1.42;;
38785;SDS011;24535;45.508;12.252;2022-09-06T15:24:31;3.20;;;1.60;;
38785;SDS011;24535;45.508;12.252;2022-09-06T15:26:57;1.80;;;1.60;;
38785;SDS011;24535;45.508;12.252;2022-09-06T15:29:23;2.28;;;1.58;;
38785;SDS011;24535;45.508;12.252;2022-09-06T15:31:50;2.05;;;1.48;;
38785;SDS011;24535;45.508;12.252;2022-09-06T15:34:17;2.72;;;1.60;;
38785;SDS011;24535;45.508;12.252;2022-09-06T15:36:47;2.03;;;1.30;;
38785;SDS011;24535;45.508;12.252;2022-09-06T15:39:13;2.28;;;1.55;;
38785;SDS011;24535;45.508;12.252;2022-09-06T15:41:39;1.88;;;1.38;;
38785;SDS011;24535;45.508;12.252;2022-09-06T15:44:09;1.90;;;1.63;;
38785;SDS011;24535;45.508;12.252;2022-09-06T15:46:50;5.32;;;1.63;;
38785;SDS011;24535;45.508;12.252;2022-09-06T15:49:24;5.00;;;1.83;;
38785;SDS011;24535;45.508;12.252;2022-09-06T15:51:58;4.65;;;2.15;;
38785;SDS011;24535;45.508;12.252;2022-09-06T15:54:25;8.05;;;1.50;;
38785;SDS011;24535;45.508;12.252;2022-09-06T15:57:10;2.35;;;1.42;;
38785;SDS011;24535;45.508;12.252;2022-09-06T15:59:36;4.25;;;1.88;;
38785;SDS011;24535;45.508;12.252;2022-09-06T16:02:01;3.08;;;1.38;;
38785;SDS011;24535;45.508;12.252;2022-09-06T16:04:27;2.35;;;1.55;;
38785;SDS011;24535;45.508;12.252;2022-09-06T16:06:53;3.05;;;1.90;;
38785;SDS011;24535;45.508;12.252;2022-09-06T16:09:18;1.65;;;1.30;;
38785;SDS011;24535;45.508;12.252;2022-09-06T16:11:43;4.20;;;1.88;;
38785;SDS011;24535;45.508;12.252;2022-09-06T16:14:10;1.52;;;1.42;;
38785;SDS011;24535;45.508;12.252;2022-09-06T16:16:37;3.00;;;1.73;;
38785;SDS011;24535;45.508;12.252;2022-09-06T16:19:04;3.47;;;1.98;;
38785;SDS011;24535;45.508;12.252;2022-09-06T16:21:30;2.50;;;2.28;;
38785;SDS011;24535;45.508;12.252;2022-09-06T16:24:02;5.25;;;2.58;;
38785;SDS011;24535;45.508;12.252;2022-09-06T16:26:30;3.92;;;2.08;;
38785;SDS011;24535;45.508;12.252;2022-09-06T16:28:57;3.25;;;1.60;;
38785;SDS011;24535;45.508;12.252;2022-09-06T16:31:24;3.28;;;2.33;;
38785;SDS011;24535;45.508;12.252;2022-09-06T16:33:51;2.97;;;1.70;;
38785;SDS011;24535;45.508;12.252;2022-09-06T16:36:17;3.35;;;1.90;;
38785;SDS011;24535;45.508;12.252;2022-09-06T16:38:44;5.38;;;1.70;;
38785;SDS011;24535;45.508;12.252;2022-09-06T16:41:20;3.85;;;1.95;;
38785;SDS011;24535;45.508;12.252;2022-09-06T16:43:49;2.33;;;1.58;;
38785;SDS011;24535;45.508;12.252;2022-09-06T16:46:16;3.08;;;1.83;;
38785;SDS011;24535;45.508;12.252;2022-09-06T16:48:48;4.43;;;2.13;;
38785;SDS011;24535;45.508;12.252;2022-09-06T16:51:19;2.65;;;1.83;;
38785;SDS011;24535;45.508;12.252;2022-09-06T16:53:46;3.15;;;1.83;;
38785;SDS011;24535;45.508;12.252;2022-09-06T16:56:13;4.18;;;1.63;;
38785;SDS011;24535;45.508;12.252;2022-09-06T16:58:41;3.28;;;1.67;;
38785;SDS011;24535;45.508;12.252;2022-09-06T17:01:08;3.08;;;1.77;;
38785;SDS011;24535;45.508;12.252;2022-09-06T17:03:35;7.85;;;2.03;;
38785;SDS011;24535;45.508;12.252;2022-09-06T17:06:03;6.10;;;1.50;;
38785;SDS011;24535;45.508;12.252;2022-09-06T17:08:30;3.35;;;1.70;;
38785;SDS011;24535;45.508;12.252;2022-09-06T17:11:03;5.18;;;1.70;;
38785;SDS011;24535;45.508;12.252;2022-09-06T17:13:33;3.28;;;1.63;;